createdAt,value
2023-04-25T00:01:25.281Z,98531.88
2023-04-25T00:03:52.314Z,98532.28
2023-04-25T00:06:19.559Z,98523.66
2023-04-25T00:08:46.347Z,98530.44
2023-04-25T00:11:13.040Z,98523.28
2023-04-25T00:13:42.669Z,98525.94
2023-04-25T00:16:09.625Z,98524.06
2023-04-25T00:18:37.392Z,98523.25
2023-04-25T00:21:07.094Z,98518.00
2023-04-25T00:23:33.854Z,98518.00
2023-04-25T00:26:00.495Z,98513.81
2023-04-25T00:28:27.173Z,98510.78
2023-04-25T00:30:54.086Z,98514.84
2023-04-25T00:33:20.794Z,98504.31
2023-04-25T00:35:47.557Z,98501.31
2023-04-25T00:38:14.425Z,98501.31
2023-04-25T00:40:41.148Z,98502.06
2023-04-25T00:43:07.846Z,98499.44
2023-04-25T00:45:39.094Z,98496.75
2023-04-25T00:48:05.945Z,98496.75
2023-04-25T00:50:34.864Z,98496.75
2023-04-25T00:53:01.641Z,98494.88
2023-04-25T00:55:28.480Z,98494.88
2023-04-25T00:57:55.367Z,98486.88
2023-04-25T01:00:22.552Z,98486.88
2023-04-25T01:02:49.441Z,98487.63
2023-04-25T01:05:16.433Z,98484.28
2023-04-25T01:07:43.291Z,98492.53
2023-04-25T01:10:10.369Z,98473.28
2023-04-25T01:12:37.153Z,98485.28
2023-04-25T01:15:04.461Z,98479.63
2023-04-25T01:17:32.433Z,98477.75
2023-04-25T01:19:59.365Z,98479.28
2023-04-25T01:22:26.828Z,98484.53
2023-04-25T01:24:53.634Z,98478.84
2023-04-25T01:27:21.787Z,98480.72
2023-04-25T01:29:48.830Z,98472.81
2023-04-25T01:32:16.029Z,98479.59
2023-04-25T01:34:42.853Z,98473.91
2023-04-25T01:37:09.646Z,98468.25
2023-04-25T01:39:36.381Z,98471.69
2023-04-25T01:42:03.288Z,98467.13
2023-04-25T01:44:30.054Z,98470.06
2023-04-25T01:46:56.818Z,98465.53
2023-04-25T01:49:24.634Z,98454.59
2023-04-25T01:51:51.444Z,98464.31
2023-04-25T01:54:18.210Z,98461.34
2023-04-25T01:56:45.194Z,98460.91
2023-04-25T01:59:12.208Z,98460.97
2023-04-25T02:01:38.998Z,98459.00
2023-04-25T02:04:05.969Z,98468.47
2023-04-25T02:06:33.203Z,98464.34
2023-04-25T02:09:00.000Z,98461.75
2023-04-25T02:11:26.748Z,98459.53
2023-04-25T02:13:53.446Z,98458.78
2023-04-25T02:16:20.376Z,98459.53
2023-04-25T02:18:47.977Z,98461.06
2023-04-25T02:21:14.746Z,98459.59
2023-04-25T02:23:41.588Z,98463.31
2023-04-25T02:26:08.278Z,98470.88
2023-04-25T02:28:35.017Z,98482.13
2023-04-25T02:31:01.822Z,98475.84
2023-04-25T02:33:28.596Z,98463.47
2023-04-25T02:35:55.371Z,98472.09
2023-04-25T02:38:22.048Z,98468.06
2023-04-25T02:40:48.746Z,98462.41
2023-04-25T02:43:15.470Z,98463.59
2023-04-25T02:45:42.205Z,98479.78
2023-04-25T02:48:08.989Z,98462.09
2023-04-25T02:50:35.849Z,98469.25
2023-04-25T02:53:02.554Z,98469.63
2023-04-25T02:55:29.251Z,98467.69
2023-04-25T02:57:58.741Z,98467.28
2023-04-25T03:00:25.537Z,98477.38
2023-04-25T03:02:52.385Z,98470.91
2023-04-25T03:05:19.246Z,98471.22
2023-04-25T03:07:46.716Z,98473.81
2023-04-25T03:10:13.437Z,98474.19
2023-04-25T03:12:40.300Z,98477.50
2023-04-25T03:15:07.420Z,98474.38
2023-04-25T03:17:34.359Z,98479.13
2023-04-25T03:20:01.529Z,98473.44
2023-04-25T03:22:28.313Z,98479.44
2023-04-25T03:24:55.105Z,98476.78
2023-04-25T03:27:21.866Z,98471.13
2023-04-25T03:29:48.661Z,98472.53
2023-04-25T03:32:15.388Z,98477.81
2023-04-25T03:34:42.304Z,98477.81
2023-04-25T03:37:09.029Z,98470.97
2023-04-25T03:39:36.144Z,98479.25
2023-04-25T03:42:03.980Z,98488.25
2023-04-25T03:44:30.822Z,98477.63
2023-04-25T03:46:57.804Z,98478.31
2023-04-25T03:49:25.337Z,98457.91
2023-04-25T03:51:52.064Z,98470.63
2023-04-25T03:54:18.818Z,98475.19
2023-04-25T03:56:45.524Z,98470.63
2023-04-25T03:59:15.238Z,98483.34
2023-04-25T04:01:41.982Z,98484.88
2023-04-25T04:04:09.189Z,98486.34
2023-04-25T04:06:37.451Z,98482.16
2023-04-25T04:09:04.424Z,98482.44
2023-04-25T04:11:32.371Z,98477.88
2023-04-25T04:13:59.222Z,98477.03
2023-04-25T04:16:26.087Z,98486.47
2023-04-25T04:18:52.843Z,98484.16
2023-04-25T04:21:19.565Z,98496.56
2023-04-25T04:23:47.568Z,98483.69
2023-04-25T04:26:16.309Z,98489.59
2023-04-25T04:28:44.988Z,98485.81
2023-04-25T04:31:12.636Z,98490.75
2023-04-25T04:33:39.439Z,98494.81
2023-04-25T04:36:08.587Z,98507.25
2023-04-25T04:38:35.646Z,98496.38
2023-04-25T04:41:02.474Z,98505.66
2023-04-25T04:43:29.585Z,98491.34
2023-04-25T04:45:59.660Z,98501.53
2023-04-25T04:48:26.382Z,98505.97
2023-04-25T04:50:53.213Z,98505.19
2023-04-25T04:53:20.042Z,98501.03
2023-04-25T04:55:47.201Z,98493.75
2023-04-25T04:58:14.013Z,98510.78
2023-04-25T05:00:41.291Z,98498.06
2023-04-25T05:03:08.227Z,98506.78
2023-04-25T05:05:35.597Z,98512.59
2023-04-25T05:08:04.464Z,98512.66
2023-04-25T05:10:31.174Z,98511.00
2023-04-25T05:12:57.887Z,98507.16
2023-04-25T05:15:24.655Z,98519.88
2023-04-25T05:17:51.639Z,98512.22
2023-04-25T05:20:20.005Z,98496.81
2023-04-25T05:22:46.861Z,98495.91
2023-04-25T05:25:13.611Z,98503.09
2023-04-25T05:27:40.309Z,98500.84
2023-04-25T05:30:08.031Z,98507.19
2023-04-25T05:32:34.832Z,98509.81
2023-04-25T05:35:01.639Z,98492.41
2023-04-25T05:37:28.352Z,98503.56
2023-04-25T05:39:55.329Z,98497.38
2023-04-25T05:42:22.270Z,98504.41
2023-04-25T05:44:49.087Z,98490.50
2023-04-25T05:47:16.245Z,98502.38
2023-04-25T05:49:42.970Z,98503.94
2023-04-25T05:52:09.656Z,98505.56
2023-04-25T05:54:36.462Z,98518.09
2023-04-25T05:57:03.720Z,98524.13
2023-04-25T05:59:30.509Z,98515.81
2023-04-25T06:01:57.220Z,98505.91
2023-04-25T06:04:24.236Z,98516.88
2023-04-25T06:06:51.638Z,98516.66
2023-04-25T06:09:18.460Z,98519.47
2023-04-25T06:11:45.799Z,98515.16
2023-04-25T06:14:12.501Z,98520.66
2023-04-25T06:16:39.257Z,98516.06
2023-04-25T06:19:06.214Z,98516.56
2023-04-25T06:21:33.434Z,98517.56
2023-04-25T06:24:00.444Z,98515.56
2023-04-25T06:26:27.168Z,98511.94
2023-04-25T06:28:53.922Z,98519.81
2023-04-25T06:31:20.826Z,98518.84
2023-04-25T06:33:49.498Z,98518.50
2023-04-25T06:36:16.491Z,98519.78
2023-04-25T06:38:43.430Z,98523.81
2023-04-25T06:41:10.663Z,98520.59
2023-04-25T06:43:37.425Z,98520.41
2023-04-25T06:46:04.377Z,98516.78
2023-04-25T06:48:31.151Z,98522.84
2023-04-25T06:50:57.919Z,98522.25
2023-04-25T06:53:24.642Z,98523.88
2023-04-25T06:55:51.386Z,98522.84
2023-04-25T06:58:18.821Z,98519.56
2023-04-25T07:00:45.714Z,98515.84
2023-04-25T07:03:14.546Z,98522.03
2023-04-25T07:05:41.633Z,98519.03
2023-04-25T07:08:08.382Z,98523.63
2023-04-25T07:10:36.136Z,98515.34
2023-04-25T07:13:02.928Z,98526.38
2023-04-25T07:15:29.711Z,98527.56
2023-04-25T07:17:56.521Z,98528.41
2023-04-25T07:20:23.314Z,98531.13
2023-04-25T07:22:51.169Z,98525.97
2023-04-25T07:25:18.307Z,98532.84
2023-04-25T07:27:45.470Z,98533.31
2023-04-25T07:30:13.294Z,98535.00
2023-04-25T07:32:40.704Z,98538.25
2023-04-25T07:35:08.829Z,98544.03
2023-04-25T07:37:36.472Z,98530.25
2023-04-25T07:40:05.006Z,98537.19
2023-04-25T07:42:32.333Z,98546.00
2023-04-25T07:44:59.085Z,98549.53
2023-04-25T07:47:26.550Z,98563.63
2023-04-25T07:49:55.487Z,98551.25
2023-04-25T07:52:22.561Z,98548.31
2023-04-25T07:54:49.704Z,98545.28
2023-04-25T07:57:18.052Z,98552.16
2023-04-25T07:59:44.957Z,98548.03
2023-04-25T08:02:11.763Z,98545.81
2023-04-25T08:04:38.725Z,98548.38
2023-04-25T08:07:05.588Z,98557.47
2023-04-25T08:09:35.648Z,98550.56
2023-04-25T08:12:03.138Z,98550.56
2023-04-25T08:14:36.787Z,98553.56
2023-04-25T08:17:04.770Z,98538.72
2023-04-25T08:19:31.874Z,98552.00
2023-04-25T08:21:59.000Z,98553.47
2023-04-25T08:24:27.220Z,98559.94
2023-04-25T08:26:54.979Z,98555.81
2023-04-25T08:29:22.273Z,98558.88
2023-04-25T08:31:49.357Z,98553.59
2023-04-25T08:34:16.302Z,98563.88
2023-04-25T08:36:43.139Z,98566.91
2023-04-25T08:39:09.898Z,98563.50
2023-04-25T08:41:38.177Z,98565.38
2023-04-25T08:44:06.544Z,98566.50
2023-04-25T08:46:33.751Z,98577.53
2023-04-25T08:49:03.205Z,98577.13
2023-04-25T08:51:33.188Z,98582.81
2023-04-25T08:56:48.913Z,98580.91
2023-04-25T08:59:15.931Z,98581.22
2023-04-25T09:01:44.709Z,98586.06
2023-04-25T09:04:13.748Z,98584.13
2023-04-25T09:06:41.015Z,98586.78
2023-04-25T09:09:09.638Z,98586.31
2023-04-25T09:11:37.565Z,98590.44
2023-04-25T09:14:26.107Z,98592.81
2023-04-25T09:17:00.554Z,98595.91
2023-04-25T09:19:46.862Z,98592.88
2023-04-25T09:22:14.079Z,98590.19
2023-04-25T09:24:47.144Z,98591.78
2023-04-25T09:27:19.754Z,98586.88
2023-04-25T09:29:47.384Z,98563.88
2023-04-25T09:32:22.531Z,98594.47
2023-04-25T09:34:51.609Z,98598.16
2023-04-25T09:37:20.417Z,98598.44
2023-04-25T09:39:48.812Z,98589.84
2023-04-25T09:42:17.329Z,98588.78
2023-04-25T09:44:45.861Z,98604.16
2023-04-25T09:47:14.163Z,98606.63
2023-04-25T09:49:45.059Z,98595.75
2023-04-25T09:52:19.428Z,98607.28
2023-04-25T09:54:47.330Z,98601.41
2023-04-25T09:57:25.285Z,98587.53
2023-04-25T09:59:53.817Z,98603.53
2023-04-25T10:02:26.253Z,98605.94
2023-04-25T10:04:56.150Z,98600.88
2023-04-25T10:07:29.585Z,98597.75
2023-04-25T10:10:01.583Z,98596.56
2023-04-25T10:12:28.486Z,98591.06
2023-04-25T10:14:56.067Z,98596.25
2023-04-25T10:17:23.208Z,98596.28
2023-04-25T10:19:50.500Z,98602.00
2023-04-25T10:22:38.383Z,98599.34
2023-04-25T10:25:05.971Z,98591.44
2023-04-25T10:27:32.951Z,98593.72
2023-04-25T10:30:12.571Z,98599.38
2023-04-25T10:32:39.744Z,98596.25
2023-04-25T10:35:13.496Z,98602.28
2023-04-25T10:37:58.408Z,98598.44
2023-04-25T10:40:25.563Z,98594.09
2023-04-25T10:42:56.232Z,98612.06
2023-04-25T10:45:23.321Z,98600.81
2023-04-25T10:47:51.470Z,98605.22
2023-04-25T10:50:19.022Z,98593.66
2023-04-25T10:52:47.831Z,98599.66
2023-04-25T10:55:14.854Z,98597.84
2023-04-25T10:57:43.256Z,98595.88
2023-04-25T11:00:12.673Z,98605.59
2023-04-25T11:03:00.683Z,98604.09
2023-04-25T11:05:50.971Z,98602.47
2023-04-25T11:08:41.117Z,98611.22
2023-04-25T11:11:09.129Z,98614.31
2023-04-25T11:13:35.895Z,98618.00
2023-04-25T11:16:12.175Z,98628.69
2023-04-25T11:18:42.803Z,98620.72
2023-04-25T11:21:12.379Z,98624.13
2023-04-25T11:23:39.144Z,98620.75
2023-04-25T11:26:06.097Z,98630.25
2023-04-25T11:28:33.016Z,98627.91
2023-04-25T11:30:59.814Z,98627.06
2023-04-25T11:33:28.175Z,98629.47
2023-04-25T11:35:56.408Z,98637.00
2023-04-25T11:38:28.716Z,98642.84
2023-04-25T11:40:56.404Z,98636.88
2023-04-25T11:43:23.645Z,98631.72
2023-04-25T11:45:52.079Z,98631.75
2023-04-25T11:48:26.053Z,98642.66
2023-04-25T11:50:55.026Z,98640.97
2023-04-25T11:53:22.038Z,98647.81
2023-04-25T11:55:48.877Z,98647.19
2023-04-25T11:58:15.667Z,98640.31
2023-04-25T12:00:50.576Z,98651.09
2023-04-25T12:03:21.369Z,98653.97
2023-04-25T12:05:48.583Z,98660.34
2023-04-25T12:08:17.221Z,98665.53
2023-04-25T12:10:46.427Z,98663.34
2023-04-25T12:13:24.734Z,98649.19
2023-04-25T12:15:51.825Z,98652.16
2023-04-25T12:18:24.364Z,98651.47
2023-04-25T12:20:51.156Z,98653.28
2023-04-25T12:23:17.942Z,98659.19
2023-04-25T12:25:48.076Z,98664.94
2023-04-25T12:28:20.704Z,98656.84
2023-04-25T12:31:04.206Z,98660.00
2023-04-25T12:33:33.570Z,98662.91
2023-04-25T12:36:02.058Z,98653.91
2023-04-25T12:38:31.440Z,98654.03
2023-04-25T12:40:59.174Z,98647.72
2023-04-25T12:43:25.973Z,98640.53
2023-04-25T12:45:56.535Z,98653.03
2023-04-25T12:48:23.875Z,98640.69
2023-04-25T12:50:54.947Z,98637.50
2023-04-25T12:53:23.981Z,98640.06
2023-04-25T12:55:50.900Z,98636.22
2023-04-25T12:58:19.039Z,98637.38
2023-04-25T13:00:46.135Z,98631.88
2023-04-25T13:03:14.133Z,98641.59
2023-04-25T13:05:42.086Z,98633.50
2023-04-25T13:08:09.138Z,98629.22
2023-04-25T13:10:37.080Z,98626.63
2023-04-25T13:13:03.992Z,98624.22
2023-04-25T13:15:31.748Z,98618.22
2023-04-25T13:17:58.525Z,98609.03
2023-04-25T13:20:25.774Z,98626.06
2023-04-25T13:22:52.662Z,98619.28
2023-04-25T13:25:19.872Z,98626.53
2023-04-25T13:27:47.449Z,98618.25
2023-04-25T13:30:14.780Z,98618.03
2023-04-25T13:32:42.147Z,98614.81
2023-04-25T13:35:13.487Z,98602.63
2023-04-25T13:37:40.862Z,98618.19
2023-04-25T13:40:11.162Z,98620.09
2023-04-25T13:42:39.180Z,98612.41
2023-04-25T13:45:06.803Z,98600.75
2023-04-25T13:47:33.760Z,98599.34
2023-04-25T13:50:01.245Z,98602.53
2023-04-25T13:52:28.397Z,98598.03
2023-04-25T13:54:55.305Z,98605.44
2023-04-25T13:57:22.035Z,98614.59
2023-04-25T13:59:48.915Z,98597.22
2023-04-25T14:02:16.715Z,98613.63
2023-04-25T14:04:43.592Z,98610.38
2023-04-25T14:07:11.949Z,98605.41
2023-04-25T14:09:38.789Z,98593.38
2023-04-25T14:12:07.650Z,98596.47
2023-04-25T14:14:34.423Z,98594.66
2023-04-25T14:17:01.439Z,98592.88
2023-04-25T14:19:29.726Z,98581.84
2023-04-25T14:21:57.090Z,98583.22
2023-04-25T14:24:23.804Z,98602.88
2023-04-25T14:26:50.823Z,98592.63
2023-04-25T14:29:17.837Z,98597.75
2023-04-25T14:31:46.113Z,98595.34
2023-04-25T14:34:13.060Z,98604.00
2023-04-25T14:36:39.831Z,98599.19
2023-04-25T14:39:06.668Z,98593.25
2023-04-25T14:41:33.435Z,98596.44
2023-04-25T14:44:00.933Z,98592.44
2023-04-25T14:46:27.948Z,98590.91
2023-04-25T14:48:56.755Z,98608.66
2023-04-25T14:51:23.893Z,98602.56
2023-04-25T14:53:52.266Z,98600.25
2023-04-25T14:56:19.811Z,98596.91
2023-04-25T14:58:46.706Z,98598.00
2023-04-25T15:01:14.067Z,98600.53
2023-04-25T15:03:41.670Z,98592.25
2023-04-25T15:06:08.588Z,98594.88
2023-04-25T15:08:35.591Z,98581.50
2023-04-25T15:11:03.378Z,98586.19
2023-04-25T15:13:30.270Z,98577.66
2023-04-25T15:15:56.968Z,98570.25
2023-04-25T15:18:24.756Z,98568.47
2023-04-25T15:20:52.611Z,98561.91
2023-04-25T15:23:20.815Z,98562.69
2023-04-25T15:25:48.282Z,98567.38
2023-04-25T15:28:16.855Z,98559.94
2023-04-25T15:30:44.488Z,98564.41
2023-04-25T15:33:11.354Z,98570.53
2023-04-25T15:35:38.363Z,98572.34
2023-04-25T15:38:05.538Z,98575.09
2023-04-25T15:40:32.287Z,98567.66
2023-04-25T15:42:59.742Z,98581.78
2023-04-25T15:45:26.798Z,98578.31
2023-04-25T15:47:55.237Z,98578.81
2023-04-25T15:50:22.489Z,98581.47
2023-04-25T15:52:50.521Z,98580.09
2023-04-25T15:55:21.123Z,98589.16
2023-04-25T15:57:49.765Z,98585.69
2023-04-25T16:00:21.202Z,98587.81
2023-04-25T16:02:48.684Z,98590.00
2023-04-25T16:05:16.534Z,98581.06
2023-04-25T16:07:44.814Z,98582.75
2023-04-25T16:10:12.557Z,98589.31
2023-04-25T16:12:40.775Z,98584.38
2023-04-25T16:15:08.085Z,98588.22
2023-04-25T16:17:35.239Z,98584.47
2023-04-25T16:20:05.417Z,98588.38
2023-04-25T16:22:32.367Z,98591.44
2023-04-25T16:24:59.121Z,98588.09
2023-04-25T16:27:25.901Z,98593.06
2023-04-25T16:29:52.663Z,98591.56
2023-04-25T16:32:19.649Z,98589.28
2023-04-25T16:34:46.468Z,98583.63
2023-04-25T16:37:13.180Z,98586.28
2023-04-25T16:39:39.981Z,98590.81
2023-04-25T16:42:06.912Z,98587.06
2023-04-25T16:44:33.596Z,98584.00
2023-04-25T16:47:00.448Z,98587.06
2023-04-25T16:49:28.557Z,98585.16
2023-04-25T16:51:55.676Z,98585.13
2023-04-25T16:54:22.441Z,98583.59
2023-04-25T16:56:49.130Z,98580.94
2023-04-25T16:59:15.863Z,98583.59
2023-04-25T17:01:42.576Z,98583.97
2023-04-25T17:04:09.542Z,98577.53
2023-04-25T17:06:36.439Z,98574.88
2023-04-25T17:09:03.207Z,98577.50
2023-04-25T17:11:30.376Z,98586.53
2023-04-25T17:13:57.178Z,98582.69
2023-04-25T17:16:24.138Z,98592.84
2023-04-25T17:18:51.666Z,98608.25
2023-04-25T17:21:19.012Z,98612.69
2023-04-25T17:23:45.938Z,98609.19
2023-04-25T17:26:13.191Z,98612.84
2023-04-25T17:28:41.941Z,98621.81
2023-04-25T17:31:09.810Z,98620.63
2023-04-25T17:33:36.733Z,98624.66
2023-04-25T17:36:04.174Z,98619.25
2023-04-25T17:38:31.623Z,98631.19
2023-04-25T17:40:58.876Z,98627.69
2023-04-25T17:43:27.568Z,98640.75
2023-04-25T17:45:54.659Z,98634.25
2023-04-25T17:48:24.945Z,98638.63
2023-04-25T17:50:51.723Z,98636.59
2023-04-25T17:53:18.561Z,98642.81
2023-04-25T17:55:45.372Z,98644.97
2023-04-25T17:58:12.232Z,98654.28
2023-04-25T18:00:39.141Z,98643.19
2023-04-25T18:03:06.878Z,98655.13
2023-04-25T18:05:33.634Z,98660.28
2023-04-25T18:08:00.750Z,98660.09
2023-04-25T18:10:27.790Z,98669.38
2023-04-25T18:12:54.576Z,98673.00
2023-04-25T18:15:22.166Z,98673.25
2023-04-25T18:17:49.193Z,98672.78
2023-04-25T18:20:17.192Z,98682.44
2023-04-25T18:22:45.340Z,98680.84
2023-04-25T18:25:13.389Z,98681.47
2023-04-25T18:27:40.909Z,98688.22
2023-04-25T18:30:09.491Z,98691.81
2023-04-25T18:32:36.825Z,98691.00
2023-04-25T18:35:04.593Z,98695.84
2023-04-25T18:37:31.424Z,98699.97
2023-04-25T18:39:58.633Z,98702.22
2023-04-25T18:42:25.480Z,98701.31
2023-04-25T18:44:52.480Z,98702.03
2023-04-25T18:47:19.458Z,98701.94
2023-04-25T18:49:47.727Z,98704.88
2023-04-25T18:52:16.059Z,98716.09
2023-04-25T18:54:42.944Z,98708.84
2023-04-25T18:57:11.549Z,98709.97
2023-04-25T18:59:38.223Z,98709.13
2023-04-25T19:02:05.474Z,98709.41
2023-04-25T19:04:32.726Z,98709.78
2023-04-25T19:06:59.787Z,98712.34
2023-04-25T19:09:26.720Z,98697.91
2023-04-25T19:11:54.171Z,98706.63
2023-04-25T19:14:20.974Z,98711.47
2023-04-25T19:16:47.750Z,98705.78
2023-04-25T19:19:14.598Z,98707.22
2023-04-25T19:21:41.822Z,98710.22
2023-04-25T19:24:08.862Z,98714.34
2023-04-25T19:26:35.722Z,98704.97
2023-04-25T19:29:07.262Z,98710.91
2023-04-25T19:31:38.159Z,98707.44
2023-04-25T19:34:06.338Z,98719.06
2023-04-25T19:36:33.762Z,98716.00
2023-04-25T19:39:04.605Z,98716.69
2023-04-25T19:41:33.337Z,98723.31
2023-04-25T19:44:04.580Z,98721.78
2023-04-25T19:46:34.468Z,98711.91
2023-04-25T19:49:01.613Z,98718.94
2023-04-25T19:51:28.999Z,98719.97
2023-04-25T19:53:56.003Z,98722.84
2023-04-25T19:56:24.353Z,98711.09
2023-04-25T19:58:51.476Z,98720.00
2023-04-25T20:01:22.068Z,98718.78
2023-04-25T20:03:51.788Z,98722.47
2023-04-25T20:06:18.931Z,98719.47
2023-04-25T20:08:47.076Z,98713.38
2023-04-25T20:11:14.901Z,98719.31
2023-04-25T20:13:41.942Z,98726.78
2023-04-25T20:16:08.850Z,98730.44
2023-04-25T20:18:35.647Z,98719.16
2023-04-25T20:21:03.185Z,98722.53
2023-04-25T20:23:30.070Z,98723.97
2023-04-25T20:25:56.919Z,98718.63
2023-04-25T20:28:23.757Z,98726.88
2023-04-25T20:30:50.841Z,98728.97
2023-04-25T20:33:17.603Z,98728.78
2023-04-25T20:35:44.361Z,98733.94
2023-04-25T20:38:12.057Z,98728.19
2023-04-25T20:40:38.842Z,98740.34
2023-04-25T20:43:05.767Z,98742.28
2023-04-25T20:45:34.446Z,98743.75
2023-04-25T20:48:02.710Z,98740.25
2023-04-25T20:50:29.567Z,98754.47
2023-04-25T20:52:56.300Z,98753.53
2023-04-25T20:55:23.004Z,98753.09
2023-04-25T20:57:50.099Z,98752.56
2023-04-25T21:00:18.739Z,98757.41
2023-04-25T21:02:46.650Z,98762.19
2023-04-25T21:05:13.741Z,98770.28
2023-04-25T21:07:40.539Z,98775.53
2023-04-25T21:10:07.584Z,98780.38
2023-04-25T21:12:35.573Z,98774.69
2023-04-25T21:15:02.510Z,98769.22
2023-04-25T21:17:29.343Z,98770.19
2023-04-25T21:19:56.659Z,98773.16
2023-04-25T21:22:23.491Z,98779.09
2023-04-25T21:24:50.778Z,98785.63
2023-04-25T21:27:17.714Z,98788.91
2023-04-25T21:29:45.004Z,98788.06
2023-04-25T21:32:11.794Z,98790.03
2023-04-25T21:34:38.534Z,98793.00
2023-04-25T21:37:05.844Z,98794.41
2023-04-25T21:39:32.848Z,98793.53
2023-04-25T21:42:01.349Z,98790.47
2023-04-25T21:44:30.229Z,98787.00
2023-04-25T21:46:57.120Z,98789.63
2023-04-25T21:49:29.199Z,98796.81
2023-04-25T21:51:56.964Z,98794.84
2023-04-25T21:54:23.721Z,98796.59
2023-04-25T21:56:51.744Z,98802.03
2023-04-25T21:59:18.436Z,98803.03
2023-04-25T22:01:45.475Z,98806.63
2023-04-25T22:04:12.496Z,98805.09
2023-04-25T22:06:39.362Z,98811.00
2023-04-25T22:09:06.102Z,98806.72
2023-04-25T22:11:32.857Z,98806.38
2023-04-25T22:13:59.723Z,98809.66
2023-04-25T22:16:26.441Z,98812.28
2023-04-25T22:18:53.709Z,98821.22
2023-04-25T22:21:20.668Z,98812.50
2023-04-25T22:23:47.357Z,98822.53
2023-04-25T22:26:14.416Z,98820.56
2023-04-25T22:28:41.372Z,98823.19
2023-04-25T22:31:08.573Z,98826.13
2023-04-25T22:33:35.868Z,98821.53
2023-04-25T22:36:03.199Z,98821.84
2023-04-25T22:38:30.501Z,98816.97
2023-04-25T22:40:57.258Z,98819.78
2023-04-25T22:43:24.070Z,98829.16
2023-04-25T22:45:52.236Z,98833.19
2023-04-25T22:48:19.634Z,98833.19
2023-04-25T22:50:46.568Z,98842.25
2023-04-25T22:53:13.330Z,98840.50
2023-04-25T22:55:40.074Z,98838.91
2023-04-25T22:58:10.098Z,98839.13
2023-04-25T23:00:37.701Z,98833.03
2023-04-25T23:03:04.966Z,98834.44
2023-04-25T23:05:32.972Z,98844.81
2023-04-25T23:07:59.866Z,98841.69
2023-04-25T23:10:28.182Z,98850.53
2023-04-25T23:12:57.960Z,98844.41
2023-04-25T23:15:30.974Z,98852.13
2023-04-25T23:17:58.577Z,98852.47
2023-04-25T23:20:25.465Z,98852.59
2023-04-25T23:22:52.652Z,98851.16
2023-04-25T23:25:19.399Z,98854.97
2023-04-25T23:27:46.238Z,98851.72
2023-04-25T23:30:13.783Z,98851.81
2023-04-25T23:32:40.651Z,98852.69
2023-04-25T23:35:08.174Z,98856.16
2023-04-25T23:37:37.167Z,98857.38
2023-04-25T23:40:10.578Z,98862.72
2023-04-25T23:42:38.069Z,98865.34
2023-04-25T23:45:06.740Z,98872.13
2023-04-25T23:47:34.086Z,98874.44
2023-04-25T23:50:01.628Z,98875.63
2023-04-25T23:52:28.563Z,98868.19
2023-04-25T23:54:56.253Z,98868.19
2023-04-25T23:57:22.973Z,98872.34
2023-04-25T23:59:49.791Z,98874.28
